createdAt,value
2022-11-23T00:00:47.620Z,91.27
2022-11-23T00:03:18.089Z,93.33
2022-11-23T00:05:47.528Z,90.77
2022-11-23T00:08:16.849Z,103.00
2022-11-23T00:10:46.834Z,98.13
2022-11-23T00:13:15.857Z,101.70
2022-11-23T00:15:45.087Z,92.10
2022-11-23T00:18:14.082Z,90.33
2022-11-23T00:20:45.086Z,97.53
2022-11-23T00:23:14.891Z,96.13
2022-11-23T00:25:46.711Z,98.83
2022-11-23T00:28:16.047Z,93.80
2022-11-23T00:30:51.695Z,88.97
2022-11-23T00:33:21.427Z,94.20
2022-11-23T00:36:01.607Z,95.60
2022-11-23T00:38:34.757Z,101.93
2022-11-23T00:41:06.578Z,107.20
2022-11-23T00:43:37.056Z,90.63
2022-11-23T00:46:11.398Z,92.90
2022-11-23T00:48:44.170Z,91.33
2022-11-23T00:51:18.661Z,94.50
2022-11-23T00:53:48.387Z,79.57
2022-11-23T00:56:17.524Z,95.60
2022-11-23T00:58:50.623Z,95.53
2022-11-23T01:01:21.769Z,95.43
2022-11-23T01:03:53.353Z,109.27
2022-11-23T01:06:26.055Z,108.43
2022-11-23T01:08:56.499Z,98.57
2022-11-23T01:11:27.806Z,102.67
2022-11-23T01:14:00.612Z,112.10
2022-11-23T01:16:31.870Z,103.07
2022-11-23T01:19:03.803Z,100.90
2022-11-23T01:21:35.696Z,104.60
2022-11-23T01:24:09.667Z,93.57
2022-11-23T01:26:41.010Z,102.07
2022-11-23T01:29:10.536Z,108.30
2022-11-23T01:31:46.077Z,112.63
2022-11-23T01:34:17.683Z,96.40
2022-11-23T01:36:48.970Z,100.33
2022-11-23T01:39:18.557Z,99.97
2022-11-23T01:41:49.116Z,113.20
2022-11-23T01:44:30.921Z,108.50
2022-11-23T01:47:02.369Z,102.37
2022-11-23T01:49:35.292Z,105.20
2022-11-23T01:52:08.931Z,93.13
2022-11-23T01:54:41.004Z,107.57
2022-11-23T01:57:21.088Z,100.20
2022-11-23T01:59:51.137Z,100.30
2022-11-23T02:02:20.517Z,104.83
2022-11-23T02:04:54.877Z,93.90
2022-11-23T02:07:27.590Z,105.23
2022-11-23T02:09:59.344Z,99.37
2022-11-23T02:12:30.402Z,92.47
2022-11-23T02:15:00.189Z,100.40
2022-11-23T02:17:29.522Z,106.30
2022-11-23T02:20:05.480Z,106.83
2022-11-23T02:22:45.157Z,105.97
2022-11-23T02:25:21.437Z,109.37
2022-11-23T02:27:52.740Z,96.40
2022-11-23T02:30:21.694Z,106.70
2022-11-23T02:32:54.146Z,103.23
2022-11-23T02:35:22.917Z,109.03
2022-11-23T02:37:53.560Z,104.00
2022-11-23T02:40:28.761Z,108.00
2022-11-23T02:42:59.783Z,104.97
2022-11-23T02:45:38.287Z,102.30
2022-11-23T02:48:07.876Z,110.33
2022-11-23T02:50:40.238Z,96.13
2022-11-23T02:53:09.356Z,108.43
2022-11-23T02:55:38.616Z,105.27
2022-11-23T02:58:10.212Z,94.70
2022-11-23T03:00:39.902Z,89.17
2022-11-23T03:03:09.028Z,102.90
2022-11-23T03:05:37.905Z,100.37
2022-11-23T03:08:08.920Z,91.83
2022-11-23T03:10:41.061Z,100.50
2022-11-23T03:13:12.539Z,94.57
2022-11-23T03:15:42.969Z,98.83
2022-11-23T03:18:12.619Z,101.00
2022-11-23T03:20:41.853Z,104.53
2022-11-23T03:23:10.947Z,91.13
2022-11-23T03:25:41.156Z,100.80
2022-11-23T03:28:12.720Z,103.30
2022-11-23T03:30:42.037Z,95.70
2022-11-23T03:33:12.938Z,103.13
2022-11-23T03:35:42.304Z,101.40
2022-11-23T03:38:23.263Z,98.20
2022-11-23T03:40:53.846Z,97.60
2022-11-23T03:43:44.514Z,86.80
2022-11-23T03:46:13.361Z,102.53
2022-11-23T03:48:42.070Z,96.47
2022-11-23T03:51:11.561Z,107.30
2022-11-23T03:53:41.708Z,93.63
2022-11-23T03:56:11.405Z,92.13
2022-11-23T03:58:46.691Z,99.87
2022-11-23T04:01:17.340Z,96.43
2022-11-23T04:03:52.484Z,99.00
2022-11-23T04:06:26.903Z,91.30
2022-11-23T04:09:03.258Z,94.17
2022-11-23T04:11:58.843Z,96.00
2022-11-23T04:14:29.444Z,99.53
2022-11-23T04:16:59.064Z,104.67
2022-11-23T04:19:29.341Z,91.87
2022-11-23T04:21:58.253Z,100.97
2022-11-23T04:24:29.227Z,98.87
2022-11-23T04:27:07.673Z,100.07
2022-11-23T04:29:38.819Z,101.07
2022-11-23T04:32:09.350Z,99.93
2022-11-23T04:34:40.652Z,95.40
2022-11-23T04:37:13.493Z,98.30
2022-11-23T04:39:45.027Z,101.30
2022-11-23T04:42:20.454Z,100.57
2022-11-23T04:44:59.000Z,98.93
2022-11-23T04:47:28.777Z,90.27
2022-11-23T04:50:01.793Z,89.10
2022-11-23T04:52:31.500Z,102.77
2022-11-23T04:55:03.559Z,99.13
2022-11-23T04:57:34.470Z,92.90
2022-11-23T05:00:06.489Z,94.07
2022-11-23T05:02:38.795Z,83.90
2022-11-23T05:05:23.140Z,94.27
2022-11-23T05:07:52.463Z,93.77
2022-11-23T05:10:24.842Z,91.37
2022-11-23T05:12:58.341Z,93.47
2022-11-23T05:15:29.657Z,96.07
2022-11-23T05:18:03.653Z,90.43
2022-11-23T05:20:32.660Z,96.13
2022-11-23T05:23:02.134Z,94.23
2022-11-23T05:25:34.198Z,94.77
2022-11-23T05:28:30.025Z,101.13
2022-11-23T05:30:57.639Z,96.23
2022-11-23T05:33:28.502Z,91.03
2022-11-23T05:35:57.965Z,102.73
2022-11-23T05:38:40.028Z,100.37
2022-11-23T05:41:16.197Z,103.57
2022-11-23T05:43:46.849Z,100.30
2022-11-23T05:46:22.779Z,104.10
2022-11-23T05:48:51.900Z,101.70
2022-11-23T05:51:20.717Z,100.83
2022-11-23T05:53:52.642Z,114.77
2022-11-23T05:56:32.073Z,107.27
2022-11-23T05:59:09.359Z,107.23
2022-11-23T06:01:43.520Z,119.40
2022-11-23T06:04:16.143Z,110.43
2022-11-23T06:06:47.778Z,101.73
2022-11-23T06:09:17.604Z,105.47
2022-11-23T06:11:48.779Z,118.00
2022-11-23T06:14:22.238Z,117.37
2022-11-23T06:16:55.139Z,115.53
2022-11-23T06:19:41.214Z,104.30
2022-11-23T06:22:11.699Z,94.80
2022-11-23T06:24:47.353Z,122.97
2022-11-23T06:27:37.932Z,112.03
2022-11-23T06:30:19.799Z,109.90
2022-11-23T06:32:52.092Z,92.70
2022-11-23T06:35:23.548Z,104.87
2022-11-23T06:37:54.884Z,110.47
2022-11-23T06:40:26.637Z,107.53
2022-11-23T06:43:01.552Z,106.93
2022-11-23T06:45:42.128Z,105.33
2022-11-23T06:48:18.568Z,109.37
2022-11-23T06:50:49.808Z,108.60
2022-11-23T06:53:21.256Z,104.47
2022-11-23T06:55:57.286Z,113.73
2022-11-23T06:58:28.046Z,112.47
2022-11-23T07:01:01.509Z,113.47
2022-11-23T07:03:37.399Z,107.27
2022-11-23T07:06:17.037Z,118.27
2022-11-23T07:08:48.301Z,117.63
2022-11-23T07:11:29.930Z,127.17
2022-11-23T07:13:59.101Z,107.57
2022-11-23T07:16:30.803Z,89.23
2022-11-23T07:19:02.642Z,110.77
2022-11-23T07:21:32.022Z,93.37
2022-11-23T07:24:00.612Z,106.17
2022-11-23T07:26:31.083Z,117.83
2022-11-23T07:29:03.108Z,117.40
2022-11-23T07:31:34.905Z,114.53
2022-11-23T07:34:09.707Z,116.77
2022-11-23T07:36:39.565Z,123.27
2022-11-23T07:39:12.582Z,114.83
2022-11-23T07:41:41.665Z,104.30
2022-11-23T07:44:23.721Z,111.23
2022-11-23T07:46:55.837Z,119.13
2022-11-23T07:49:26.922Z,121.60
2022-11-23T07:51:57.451Z,117.67
2022-11-23T07:54:26.812Z,116.57
2022-11-23T07:56:56.529Z,118.13
2022-11-23T07:59:25.610Z,114.00
2022-11-23T08:01:58.427Z,123.53
2022-11-23T08:04:30.848Z,128.10
2022-11-23T08:07:03.138Z,119.33
2022-11-23T08:09:33.242Z,123.80
2022-11-23T08:12:02.654Z,111.30
2022-11-23T08:14:32.404Z,123.63
2022-11-23T08:17:01.764Z,114.03
2022-11-23T08:19:32.832Z,122.37
2022-11-23T08:22:03.316Z,117.53
2022-11-23T08:24:32.382Z,116.97
2022-11-23T08:27:02.952Z,114.27
2022-11-23T08:29:32.176Z,114.73
2022-11-23T08:32:02.457Z,118.13
2022-11-23T08:34:34.142Z,115.87
2022-11-23T08:37:03.909Z,114.33
2022-11-23T08:39:32.936Z,112.23
2022-11-23T08:42:03.454Z,121.03
2022-11-23T08:44:32.857Z,109.17
2022-11-23T08:47:03.497Z,117.50
2022-11-23T08:49:34.892Z,117.90
2022-11-23T08:52:04.888Z,111.27
2022-11-23T08:54:35.426Z,101.33
2022-11-23T08:57:05.168Z,107.67
2022-11-23T08:59:36.036Z,95.33
2022-11-23T09:02:05.485Z,96.60
2022-11-23T09:04:38.333Z,86.83
2022-11-23T09:07:09.704Z,87.93
2022-11-23T09:09:56.455Z,89.20
2022-11-23T09:12:31.925Z,87.50
2022-11-23T09:15:04.047Z,78.57
2022-11-23T09:17:36.072Z,78.83
2022-11-23T09:20:13.298Z,79.60
2022-11-23T09:22:44.130Z,72.70
2022-11-23T09:25:14.401Z,76.87
2022-11-23T09:27:43.970Z,82.37
2022-11-23T09:30:15.101Z,72.37
2022-11-23T09:32:44.978Z,78.03
2022-11-23T09:35:16.716Z,72.40
2022-11-23T09:37:48.390Z,70.57
2022-11-23T09:40:18.930Z,66.57
2022-11-23T09:42:59.612Z,66.17
2022-11-23T09:45:37.356Z,63.33
2022-11-23T09:48:32.180Z,66.20
2022-11-23T09:51:08.483Z,79.23
2022-11-23T09:53:42.954Z,63.63
2022-11-23T09:56:18.668Z,65.23
2022-11-23T09:58:49.250Z,64.60
2022-11-23T10:01:19.452Z,65.20
2022-11-23T10:03:50.698Z,70.97
2022-11-23T10:06:24.578Z,71.93
2022-11-23T10:09:07.087Z,65.53
2022-11-23T10:11:57.827Z,68.93
2022-11-23T10:14:44.736Z,81.03
2022-11-23T10:17:25.322Z,71.97
2022-11-23T10:20:09.705Z,68.07
2022-11-23T10:22:47.975Z,67.00
2022-11-23T10:25:19.649Z,64.10
2022-11-23T10:27:52.132Z,56.27
2022-11-23T10:30:22.870Z,64.03
2022-11-23T10:32:57.569Z,64.30
2022-11-23T10:35:31.825Z,61.63
2022-11-23T10:38:18.697Z,62.43
2022-11-23T10:40:56.514Z,64.83
2022-11-23T10:43:30.985Z,55.63
2022-11-23T10:46:26.779Z,59.43
2022-11-23T10:48:57.806Z,62.27
2022-11-23T10:51:37.240Z,54.87
2022-11-23T10:54:21.874Z,53.13
2022-11-23T10:56:53.567Z,52.73
2022-11-23T10:59:37.690Z,52.97
2022-11-23T11:02:20.963Z,51.20
2022-11-23T11:04:58.533Z,52.03
2022-11-23T11:07:31.211Z,47.93
2022-11-23T11:10:04.024Z,43.83
2022-11-23T11:12:37.188Z,46.37
2022-11-23T11:15:18.416Z,45.03
2022-11-23T11:17:59.230Z,46.07
2022-11-23T11:20:38.682Z,38.73
2022-11-23T11:23:20.551Z,45.03
2022-11-23T11:26:04.545Z,43.50
2022-11-23T11:28:38.668Z,40.80
2022-11-23T11:31:52.472Z,41.63
2022-11-23T11:34:29.278Z,39.60
2022-11-23T11:37:04.191Z,38.87
2022-11-23T11:39:40.824Z,39.03
2022-11-23T11:42:20.130Z,47.47
2022-11-23T11:44:52.142Z,42.10
2022-11-23T11:47:30.702Z,42.57
2022-11-23T11:50:03.308Z,42.17
2022-11-23T11:52:38.664Z,44.13
2022-11-23T11:55:19.642Z,43.00
2022-11-23T11:57:59.099Z,44.97
2022-11-23T12:00:32.361Z,47.40
2022-11-23T12:03:12.487Z,49.57
2022-11-23T12:05:48.504Z,47.30
2022-11-23T12:08:26.653Z,55.23
2022-11-23T12:10:59.392Z,53.77
2022-11-23T12:13:35.710Z,53.50
2022-11-23T12:16:12.857Z,61.10
2022-11-23T12:19:08.137Z,56.00
2022-11-23T12:22:10.941Z,58.27
2022-11-23T12:25:11.769Z,64.00
2022-11-23T12:27:50.783Z,60.63
2022-11-23T12:30:26.059Z,64.50
2022-11-23T12:33:09.378Z,70.60
2022-11-23T12:36:08.377Z,65.87
2022-11-23T12:38:50.115Z,69.63
2022-11-23T12:41:32.313Z,60.87
2022-11-23T12:44:19.307Z,65.53
2022-11-23T12:46:56.069Z,64.90
2022-11-23T12:49:39.377Z,67.60
2022-11-23T12:52:34.145Z,67.17
2022-11-23T12:55:19.932Z,66.03
2022-11-23T12:57:56.911Z,66.47
2022-11-23T13:00:29.306Z,61.30
2022-11-23T13:03:34.646Z,67.73
2022-11-23T13:06:35.121Z,62.17
2022-11-23T13:09:23.806Z,60.23
2022-11-23T13:12:16.993Z,60.50
2022-11-23T13:14:54.338Z,59.80
2022-11-23T13:17:33.150Z,62.53
2022-11-23T13:20:31.775Z,57.13
2022-11-23T13:23:03.627Z,65.43
2022-11-23T13:25:35.015Z,63.33
2022-11-23T13:28:08.121Z,67.83
2022-11-23T13:31:13.533Z,69.23
2022-11-23T13:33:36.910Z,61.73
2022-11-23T13:36:16.799Z,59.50
2022-11-23T13:42:03.226Z,60.60
2022-11-23T13:44:34.421Z,67.23
2022-11-23T13:47:23.350Z,58.37
2022-11-23T13:49:55.084Z,67.83
2022-11-23T13:52:36.825Z,67.13
2022-11-23T13:55:19.753Z,65.00
2022-11-23T13:58:23.826Z,70.93
2022-11-23T14:00:56.538Z,64.60
2022-11-23T14:03:56.547Z,76.30
2022-11-23T14:06:45.418Z,67.73
2022-11-23T14:09:23.565Z,68.23
2022-11-23T14:12:03.688Z,65.70
2022-11-23T14:14:43.850Z,66.83
2022-11-23T14:17:45.394Z,72.93
2022-11-23T14:20:27.204Z,64.97
2022-11-23T14:23:25.963Z,67.40
2022-11-23T14:26:20.130Z,70.57
2022-11-23T14:29:01.514Z,66.70
2022-11-23T14:31:47.063Z,66.83
2022-11-23T14:34:25.478Z,73.47
2022-11-23T14:37:01.416Z,70.63
2022-11-23T14:39:48.757Z,76.37
2022-11-23T14:42:22.554Z,81.80
2022-11-23T14:44:52.843Z,67.67
2022-11-23T14:47:29.208Z,81.33
2022-11-23T14:49:58.859Z,70.40
2022-11-23T14:52:32.892Z,76.47
2022-11-23T14:55:08.196Z,72.13
2022-11-23T14:57:44.923Z,79.90
2022-11-23T15:00:45.435Z,66.17
2022-11-23T15:03:49.587Z,73.83
2022-11-23T15:06:12.949Z,66.20
2022-11-23T15:08:48.908Z,83.73
2022-11-23T15:11:22.723Z,98.40
2022-11-23T15:13:58.455Z,80.87
2022-11-23T15:16:28.067Z,86.33
2022-11-23T15:18:59.123Z,84.33
2022-11-23T15:21:29.838Z,79.40
2022-11-23T15:24:01.295Z,81.63
2022-11-23T15:26:48.007Z,81.73
2022-11-23T15:29:34.772Z,68.10
2022-11-23T15:32:29.339Z,75.37
2022-11-23T15:34:58.155Z,78.90
2022-11-23T15:37:30.231Z,80.17
2022-11-23T15:39:59.895Z,80.13
2022-11-23T15:42:32.953Z,71.90
2022-11-23T15:45:05.204Z,86.20
2022-11-23T15:47:35.135Z,88.63
2022-11-23T15:50:09.992Z,93.77
2022-11-23T15:52:40.245Z,88.20
2022-11-23T15:55:16.181Z,91.33
2022-11-23T15:57:45.905Z,105.53
2022-11-23T16:00:25.572Z,103.57
2022-11-23T16:02:57.962Z,85.03
2022-11-23T16:05:27.879Z,97.87
2022-11-23T16:07:58.900Z,103.83
2022-11-23T16:10:29.828Z,91.07
2022-11-23T16:13:00.866Z,113.50
2022-11-23T16:16:02.622Z,106.13
2022-11-23T16:18:35.481Z,103.50
2022-11-23T16:21:06.755Z,96.50
2022-11-23T16:23:45.341Z,96.07
2022-11-23T16:26:15.486Z,101.20
2022-11-23T16:28:52.291Z,99.20
2022-11-23T16:31:37.407Z,93.17
2022-11-23T16:34:12.301Z,90.77
2022-11-23T16:36:41.179Z,86.07
2022-11-23T16:39:10.424Z,93.63
2022-11-23T16:41:39.516Z,97.83
2022-11-23T16:44:08.937Z,96.37
2022-11-23T16:46:43.588Z,85.60
2022-11-23T16:49:20.004Z,99.00
2022-11-23T16:51:56.485Z,116.13
2022-11-23T16:54:26.645Z,103.73
2022-11-23T16:56:55.592Z,108.30
2022-11-23T16:59:26.780Z,109.63
2022-11-23T17:01:58.057Z,105.73
2022-11-23T17:04:27.445Z,93.17
2022-11-23T17:06:57.406Z,98.07
2022-11-23T17:09:26.270Z,92.93
2022-11-23T17:11:55.102Z,98.13
2022-11-23T17:14:30.233Z,102.83
2022-11-23T17:17:03.110Z,93.43
2022-11-23T17:19:34.404Z,93.47
2022-11-23T17:22:05.696Z,82.37
2022-11-23T17:24:34.898Z,85.97
2022-11-23T17:27:03.918Z,97.03
2022-11-23T17:29:37.785Z,90.93
2022-11-23T17:32:15.968Z,90.77
2022-11-23T17:34:49.113Z,91.70
2022-11-23T17:37:23.398Z,85.43
2022-11-23T17:39:54.693Z,83.03
2022-11-23T17:42:25.587Z,83.53
2022-11-23T17:44:55.408Z,96.63
2022-11-23T17:47:30.458Z,88.80
2022-11-23T17:50:07.766Z,86.03
2022-11-23T17:52:37.385Z,92.20
2022-11-23T17:55:08.109Z,86.80
2022-11-23T17:57:38.161Z,89.13
2022-11-23T18:00:09.562Z,81.53
2022-11-23T18:02:43.433Z,101.37
2022-11-23T18:05:19.723Z,81.93
2022-11-23T18:07:51.043Z,85.60
2022-11-23T18:10:22.403Z,96.80
2022-11-23T18:12:53.973Z,82.47
2022-11-23T18:15:26.808Z,77.80
2022-11-23T18:18:04.546Z,74.57
2022-11-23T18:20:34.833Z,100.53
2022-11-23T18:23:04.196Z,90.03
2022-11-23T18:25:33.349Z,91.33
2022-11-23T18:28:02.965Z,95.37
2022-11-23T18:30:32.226Z,84.60
2022-11-23T18:33:05.036Z,93.23
2022-11-23T18:35:34.402Z,84.93
2022-11-23T18:38:04.803Z,77.03
2022-11-23T18:40:40.388Z,82.80
2022-11-23T18:43:10.826Z,73.10
2022-11-23T18:45:40.508Z,74.97
2022-11-23T18:48:12.078Z,78.43
2022-11-23T18:50:41.488Z,75.83
2022-11-23T18:53:15.792Z,73.53
2022-11-23T18:55:45.611Z,76.67
2022-11-23T18:58:15.387Z,79.67
2022-11-23T19:00:45.738Z,70.47
2022-11-23T19:03:17.061Z,78.00
2022-11-23T19:05:47.064Z,69.23
2022-11-23T19:08:17.755Z,88.13
2022-11-23T19:10:50.768Z,93.70
2022-11-23T19:13:25.135Z,86.43
2022-11-23T19:15:54.420Z,81.20
2022-11-23T19:18:25.736Z,75.33
2022-11-23T19:20:56.225Z,75.83
2022-11-23T19:23:29.691Z,65.23
2022-11-23T19:26:04.795Z,85.33
2022-11-23T19:28:39.134Z,83.00
2022-11-23T19:31:13.147Z,101.03
2022-11-23T19:33:44.865Z,102.30
2022-11-23T19:36:16.388Z,101.37
2022-11-23T19:38:48.091Z,122.37
2022-11-23T19:41:17.769Z,103.07
2022-11-23T19:43:47.252Z,106.70
2022-11-23T19:46:18.027Z,94.97
2022-11-23T19:48:51.187Z,130.37
2022-11-23T19:51:24.696Z,143.77
2022-11-23T19:53:56.138Z,138.20
2022-11-23T19:56:29.710Z,161.70
2022-11-23T19:59:02.276Z,143.63
2022-11-23T20:01:34.428Z,155.40
2022-11-23T20:04:09.626Z,154.90
2022-11-23T20:06:45.300Z,132.30
2022-11-23T20:09:21.750Z,132.03
2022-11-23T20:11:52.077Z,150.67
2022-11-23T20:14:22.690Z,146.40
2022-11-23T20:16:52.515Z,153.37
2022-11-23T20:19:24.535Z,156.77
2022-11-23T20:21:54.528Z,137.70
2022-11-23T20:24:26.170Z,164.33
2022-11-23T20:26:55.636Z,165.30
2022-11-23T20:29:25.862Z,165.83
2022-11-23T20:31:55.570Z,217.53
2022-11-23T20:34:28.996Z,201.13
2022-11-23T20:36:58.449Z,185.33
2022-11-23T20:39:27.800Z,171.60
2022-11-23T20:41:59.163Z,156.47
2022-11-23T20:44:33.707Z,157.13
2022-11-23T20:47:04.336Z,155.93
2022-11-23T20:49:36.272Z,159.80
2022-11-23T20:52:06.503Z,159.37
2022-11-23T20:54:36.500Z,171.40
2022-11-23T20:57:06.230Z,166.73
2022-11-23T20:59:35.625Z,157.40
2022-11-23T21:02:05.245Z,158.77
2022-11-23T21:04:52.011Z,154.10
2022-11-23T21:07:23.994Z,145.87
2022-11-23T21:09:56.897Z,147.73
2022-11-23T21:12:49.118Z,193.50
2022-11-23T21:15:20.220Z,181.20
2022-11-23T21:17:49.990Z,171.70
2022-11-23T21:20:21.348Z,158.23
2022-11-23T21:22:50.995Z,147.20
2022-11-23T21:25:23.015Z,131.83
2022-11-23T21:27:52.633Z,129.67
2022-11-23T21:30:25.066Z,130.90
2022-11-23T21:32:54.460Z,147.40
2022-11-23T21:35:27.775Z,137.50
2022-11-23T21:37:58.664Z,203.93
2022-11-23T21:40:28.999Z,183.97
2022-11-23T21:42:59.242Z,186.70
2022-11-23T21:45:31.492Z,141.63
2022-11-23T21:48:01.440Z,148.13
2022-11-23T21:50:39.784Z,122.23
2022-11-23T21:53:09.565Z,193.20
2022-11-23T21:55:38.929Z,140.57
2022-11-23T21:58:08.618Z,129.73
2022-11-23T22:00:38.197Z,158.53
2022-11-23T22:03:09.052Z,118.17
2022-11-23T22:05:41.622Z,157.10
2022-11-23T22:08:28.628Z,107.33
2022-11-23T22:10:59.148Z,124.07
2022-11-23T22:13:31.532Z,125.03
2022-11-23T22:16:15.213Z,141.43
2022-11-23T22:18:45.413Z,142.77
2022-11-23T22:21:17.825Z,127.03
2022-11-23T22:23:48.355Z,115.77
2022-11-23T22:26:19.540Z,119.10
2022-11-23T22:28:50.304Z,121.10
2022-11-23T22:31:21.240Z,103.03
2022-11-23T22:33:51.500Z,98.50
2022-11-23T22:36:24.642Z,96.63
2022-11-23T22:39:01.272Z,92.50
2022-11-23T22:41:34.055Z,98.30
2022-11-23T22:44:04.074Z,97.00
2022-11-23T22:46:36.377Z,80.03
2022-11-23T22:49:06.365Z,92.33
2022-11-23T22:51:38.455Z,94.30
2022-11-23T22:54:07.825Z,120.17
2022-11-23T22:56:39.635Z,109.03
2022-11-23T22:59:09.403Z,90.57
2022-11-23T23:01:38.590Z,103.70
2022-11-23T23:04:08.921Z,112.37
2022-11-23T23:06:40.031Z,98.53
2022-11-23T23:09:10.210Z,91.90
2022-11-23T23:11:39.794Z,99.57
2022-11-23T23:14:09.698Z,98.53
2022-11-23T23:16:39.672Z,91.47
2022-11-23T23:19:08.706Z,96.83
2022-11-23T23:21:41.176Z,94.27
2022-11-23T23:24:11.641Z,93.00
2022-11-23T23:26:41.359Z,86.33
2022-11-23T23:29:11.506Z,101.03
2022-11-23T23:31:41.677Z,109.13
2022-11-23T23:34:11.306Z,127.73
2022-11-23T23:36:42.580Z,112.50
2022-11-23T23:39:13.173Z,130.40
2022-11-23T23:41:42.984Z,131.47
2022-11-23T23:44:12.625Z,155.47
2022-11-23T23:46:42.106Z,115.60
2022-11-23T23:49:13.085Z,89.17
2022-11-23T23:51:47.522Z,96.37
2022-11-23T23:54:20.168Z,96.30
2022-11-23T23:56:49.990Z,83.93
2022-11-23T23:59:19.728Z,95.80
